Home > Products > Valid Products > TAF

000
FTUS41 KBTV 260532
TAFMPV
TAF
KMPV 260532Z 2606/2706 28005KT P6SM OVC060
     FM261300 29006KT 6SM -SHRA BR OVC035
     FM261500 31009KT 4SM -RA BR OVC020
     FM261900 31010KT P6SM OVC035
     FM270300 30008KT P6SM OVC025=



000
FTUS41 KBTV 260532
TAFSLK
TAF
KSLK 260532Z 2606/2706 24008KT P6SM OVC035
      TEMPO 2609/2612 5SM -RA BR OVC020
     FM261200 24008KT 5SM -RA BR OVC015
     FM261700 27008KT P6SM OVC015
     FM262000 25008KT P6SM OVC025=



000
FTUS41 KBTV 260532
TAFMSS
TAF
KMSS 260532Z 2606/2706 27006KT P6SM VCSH OVC035
     FM261000 26007KT P6SM -SHRA OVC025
     FM261300 28011KT P6SM OVC015
     FM261600 28012KT P6SM OVC040=



000
FTUS41 KBTV 260532
TAFMSS
TAF
KMSS 260532Z 2606/2706 27006KT P6SM VCSH OVC035
     FM261000 26007KT P6SM -SHRA OVC025
     FM261300 28011KT P6SM OVC015
     FM261600 28012KT P6SM OVC040=



000
FTUS41 KBTV 260532
TAFSLK
TAF
KSLK 260532Z 2606/2706 24008KT P6SM OVC035
      TEMPO 2609/2612 5SM -RA BR OVC020
     FM261200 24008KT 5SM -RA BR OVC015
     FM261700 27008KT P6SM OVC015
     FM262000 25008KT P6SM OVC025=



000
FTUS41 KBTV 260532
TAFBTV
TAF
KBTV 260532Z 2606/2706 27006KT P6SM OVC060
     FM261300 28007KT P6SM VCSH OVC040
     FM261700 31011G17KT P6SM OVC040
     FM270200 30009KT P6SM OVC050=



000
FTUS41 KBTV 260532
TAFMPV
TAF
KMPV 260532Z 2606/2706 28005KT P6SM OVC060
     FM261300 29006KT 6SM -SHRA BR OVC035
     FM261500 31009KT 4SM -RA BR OVC020
     FM261900 31010KT P6SM OVC035
     FM270300 30008KT P6SM OVC025=



000
FTUS41 KBTV 260532
TAFBTV
TAF
KBTV 260532Z 2606/2706 27006KT P6SM OVC060
     FM261300 28007KT P6SM VCSH OVC040
     FM261700 31011G17KT P6SM OVC040
     FM270200 30009KT P6SM OVC050=



000
FTUS41 KBTV 260212 AAB
TAFSLK
TAF AMD
KSLK 260212Z 2602/2624 23007KT 6SM -SHRA BR BKN035
      TEMPO 2602/2605 BKN012 OVC035
     FM260500 24007G15KT 6SM -SHRA BR OVC015
      TEMPO 2611/2615 OVC008
     FM261500 25009G20KT 6SM -SHRA BR OVC015=



000
FTUS41 KBTV 260212 AAB
TAFSLK
TAF AMD
KSLK 260212Z 2602/2624 23007KT 6SM -SHRA BR BKN035
      TEMPO 2602/2605 BKN012 OVC035
     FM260500 24007G15KT 6SM -SHRA BR OVC015
      TEMPO 2611/2615 OVC008
     FM261500 25009G20KT 6SM -SHRA BR OVC015=



000
FTUS41 KBTV 260005 AAA
TAFSLK
TAF AMD
KSLK 260005Z 2600/2624 23007KT 6SM -SHRA BR BKN035
      TEMPO 2600/2603 BKN012 OVC035
     FM260500 24007G15KT 6SM -SHRA BR OVC015
      TEMPO 2611/2615 OVC008
     FM261500 25009G20KT 6SM -SHRA BR OVC015=



000
FTUS41 KBTV 252320
TAFSLK
TAF
KSLK 252320Z 2600/2624 23007KT 6SM -SHRA BR BKN035
      TEMPO 2600/2603 BKN020 OVC035
     FM260500 24007G15KT 6SM -SHRA BR OVC015
      TEMPO 2611/2615 OVC008
     FM261500 25009G20KT 6SM -SHRA BR OVC015=



000
FTUS41 KBTV 252320
TAFMPV
TAF
KMPV 252320Z 2600/2624 21005KT P6SM -SHRA OVC050
      TEMPO 2600/2602 5SM -RA BR BKN025
     FM260200 27006KT P6SM VCSH OVC060
     FM260700 29007KT P6SM VCSH OVC025
     FM261300 30011G22KT P6SM VCSH OVC025=



000
FTUS41 KBTV 252320
TAFMSS
TAF
KMSS 252320Z 2600/2624 24009KT P6SM VCSH OVC040
     FM260900 25010G16KT 6SM -SHRA BR OVC025
     FM261500 27012G21KT P6SM OVC025=



000
FTUS41 KBTV 252320
TAFBTV
TAF
KBTV 252320Z 2600/2624 19008KT P6SM -SHRA OVC035
     FM260100 21008KT P6SM OVC080
     FM260600 27008KT P6SM OVC035
     FM261200 28012G20KT P6SM VCSH OVC035=



000
FTUS41 KBTV 251947 AAB
TAFBTV
TAF AMD
KBTV 251947Z 2520/2618 20007KT P6SM OVC050
     FM252200 20009KT P6SM -SHRA OVC035
      TEMPO 2522/2524 4SM -SHRA BR BKN025
     FM260100 24010KT P6SM OVC025
     FM260600 28011KT P6SM OVC025
     FM261500 29015G22KT P6SM OVC025=



000
FTUS41 KBTV 251946 AAA
TAFSLK
TAF AMD
KSLK 251946Z 2520/2618 22009KT P6SM -SHRA SCT025 BKN035
      TEMPO 2521/2523 3SM -SHRA BR BKN012 OVC025
     FM252300 23008KT P6SM OVC020
     FM260600 25008KT P6SM OVC015
     FM261500 27010KT P6SM OVC025=



000
FTUS41 KBTV 251944 AAA
TAFMSS
TAF AMD
KMSS 251944Z 2520/2618 22012G22KT P6SM -SHRA OVC050
      TEMPO 2520/2522 3SM -SHRA BR OVC035
     FM252200 24011KT P6SM OVC025=



000
FTUS41 KBTV 251720
TAFBTV
TAF
KBTV 251720Z 2518/2618 20007KT P6SM OVC050
     FM252200 20009KT P6SM -SHRA OVC030
     FM260100 24010KT P6SM OVC025
     FM260600 28011KT P6SM OVC025
     FM261500 29015G22KT P6SM OVC025=



000
FTUS41 KBTV 251720
TAFMSS
TAF
KMSS 251720Z 2518/2618 21010G22KT P6SM BKN040
     FM251900 22012G22KT P6SM -SHRA OVC030
     FM252200 24011KT P6SM OVC025=



000
FTUS41 KBTV 251720
TAFBTV
TAF
KBTV 251720Z 2518/2618 20007KT P6SM OVC050
     FM252200 20009KT P6SM -SHRA OVC030
     FM260100 24010KT P6SM OVC025
     FM260600 28011KT P6SM OVC025
     FM261500 29015G22KT P6SM OVC025=



000
FTUS41 KBTV 251720
TAFSLK
TAF
KSLK 251720Z 2518/2618 22010G20KT P6SM OVC040
     FM252000 22009KT P6SM -SHRA OVC030
     FM252300 23008KT P6SM OVC020
     FM260600 25008KT P6SM OVC015
     FM261500 27010KT P6SM OVC025=



000
FTUS41 KBTV 251720
TAFMPV
TAF
KMPV 251720Z 2518/2618 21006KT P6SM BKN050
     FM252300 21005KT P6SM -SHRA OVC030
     FM260200 26006KT P6SM OVC015
     FM261600 30010G17KT P6SM OVC025=



000
FTUS41 KBTV 251720
TAFMSS
TAF
KMSS 251720Z 2518/2618 21010G22KT P6SM BKN040
     FM251900 22012G22KT P6SM -SHRA OVC030
     FM252200 24011KT P6SM OVC025=



000
FTUS41 KBTV 251720
TAFSLK
TAF
KSLK 251720Z 2518/2618 22010G20KT P6SM OVC040
     FM252000 22009KT P6SM -SHRA OVC030
     FM252300 23008KT P6SM OVC020
     FM260600 25008KT P6SM OVC015
     FM261500 27010KT P6SM OVC025=



000
FTUS41 KBTV 251720
TAFMPV
TAF
KMPV 251720Z 2518/2618 21006KT P6SM BKN050
     FM252300 21005KT P6SM -SHRA OVC030
     FM260200 26006KT P6SM OVC015
     FM261600 30010G17KT P6SM OVC025=



000
FTUS41 KBTV 251135
TAFMSS
TAF
KMSS 251135Z 2512/2612 23006KT P6SM FEW250
     FM251300 23007KT P6SM BKN040
     FM251900 22012G18KT P6SM -SHRA OVC030
     FM252200 22011KT P6SM OVC025=



000
FTUS41 KBTV 251135
TAFMPV
TAF
KMPV 251135Z 2512/2612 00000KT P6SM FEW250
     FM251800 21006KT P6SM BKN050
     FM252300 21005KT P6SM -SHRA OVC030
     FM260200 26006KT P6SM OVC025=



000
FTUS41 KBTV 251135
TAFSLK
TAF
KSLK 251135Z 2512/2612 23006KT 4SM BR OVC002
     FM251400 23006KT P6SM BKN040
      TEMPO 2514/2516 4SM BR BKN002
     FM251700 22010KT P6SM OVC040
     FM252000 22009KT P6SM -SHRA OVC030
     FM252300 23008KT P6SM OVC020
     FM260600 25008KT 4SM BR OVC020=



000
FTUS41 KBTV 251135
TAFBTV
TAF
KBTV 251135Z 2512/2612 00000KT P6SM SCT250
     FM251400 21006KT P6SM FEW050 FEW250
     FM251700 20007KT P6SM BKN050
     FM252200 20009KT P6SM -SHRA OVC030
     FM260100 24010KT P6SM OVC025
     FM260900 28011KT P6SM OVC025=



000
FTUS41 KBTV 251135
TAFBTV
TAF
KBTV 251135Z 2512/2612 00000KT P6SM SCT250
     FM251400 21006KT P6SM FEW050 FEW250
     FM251700 20007KT P6SM BKN050
     FM252200 20009KT P6SM -SHRA OVC030
     FM260100 24010KT P6SM OVC025
     FM260900 28011KT P6SM OVC025=



000
FTUS41 KBTV 251135
TAFMSS
TAF
KMSS 251135Z 2512/2612 23006KT P6SM FEW250
     FM251300 23007KT P6SM BKN040
     FM251900 22012G18KT P6SM -SHRA OVC030
     FM252200 22011KT P6SM OVC025=



000
FTUS41 KBTV 251135
TAFMPV
TAF
KMPV 251135Z 2512/2612 00000KT P6SM FEW250
     FM251800 21006KT P6SM BKN050
     FM252300 21005KT P6SM -SHRA OVC030
     FM260200 26006KT P6SM OVC025=



000
FTUS41 KBTV 251135
TAFSLK
TAF
KSLK 251135Z 2512/2612 23006KT 4SM BR OVC002
     FM251400 23006KT P6SM BKN040
      TEMPO 2514/2516 4SM BR BKN002
     FM251700 22010KT P6SM OVC040
     FM252000 22009KT P6SM -SHRA OVC030
     FM252300 23008KT P6SM OVC020
     FM260600 25008KT 4SM BR OVC020=



000
FTUS41 KBTV 250931 AAC
TAFMPV
TAF AMD
KMPV 250931Z 2510/2606 VRB03KT P6SM SCT120
      TEMPO 2510/2512 1 1/2SM BR BKN001
     FM251200 00000KT P6SM FEW250
     FM251800 22006KT P6SM SCT050
     FM252300 20004KT 6SM -SHRA BR OVC045
     FM260200 24006KT P6SM OVC040
     FM260500 27006KT P6SM OVC030=



000
FTUS41 KBTV 250807 AAB
TAFSLK
TAF AMD
KSLK 250807Z 2508/2606 00000KT 2SM BR BKN004
      TEMPO 2508/2512 3/4SM BR OVC003
     FM251200 VRB03KT P6SM FEW250
     FM251500 23009KT P6SM BKN030
     FM252000 22009KT 6SM -SHRA BR OVC030
     FM252300 23007KT P6SM OVC020=



000
FTUS41 KBTV 250806 AAB
TAFMPV
TAF AMD
KMPV 250806Z 2508/2606 VRB03KT 2SM BR BKN001
      TEMPO 2508/2512 3/4SM BR VV001
     FM251200 00000KT P6SM FEW250
     FM251800 22006KT P6SM SCT050
     FM252300 20004KT 6SM -SHRA BR OVC045
     FM260200 24006KT P6SM OVC040
     FM260500 27006KT P6SM OVC030=



000
FTUS41 KBTV 250704 AAA
TAFMPV
TAF AMD
KMPV 250704Z 2507/2606 VRB03KT P6SM FEW250
      TEMPO 2507/2511 1SM BR
     FM251400 00000KT P6SM FEW250
     FM251800 22006KT P6SM SCT050
     FM252300 20004KT 6SM -SHRA BR OVC045
     FM260200 24006KT P6SM OVC040
     FM260500 27006KT P6SM OVC030=



000
FTUS41 KBTV 250701 AAA
TAFSLK
TAF AMD
KSLK 250701Z 2507/2606 00000KT P6SM SCT250
      TEMPO 2507/2511 1SM BR
     FM251200 VRB03KT P6SM FEW250
     FM251500 23009KT P6SM BKN030
     FM252000 22009KT 6SM -SHRA BR OVC030
     FM252300 23007KT P6SM OVC020=



000
FTUS41 KBTV 250531
TAFBTV
TAF
KBTV 250531Z 2506/2606 00000KT P6SM FEW250
     FM251200 20006KT P6SM FEW250
     FM251700 20008KT P6SM SCT040
     FM252200 19008KT 6SM -SHRA BR OVC045
     FM260100 22010KT P6SM OVC040
     FM260400 24009KT P6SM OVC030=



000
FTUS41 KBTV 250531
TAFMPV
TAF
KMPV 250531Z 2506/2606 VRB03KT P6SM FEW250
      TEMPO 2507/2511 3SM BR
     FM251400 00000KT P6SM FEW250
     FM251800 22006KT P6SM SCT050
     FM252300 20004KT 6SM -SHRA BR OVC045
     FM260200 24006KT P6SM OVC040
     FM260500 27006KT P6SM OVC030=



000
FTUS41 KBTV 250531
TAFSLK
TAF
KSLK 250531Z 2506/2606 00000KT P6SM SCT250
      TEMPO 2506/2510 3SM BR
     FM251200 VRB03KT P6SM FEW250
     FM251500 23009KT P6SM BKN030
     FM252000 22009KT 6SM -SHRA BR OVC030
     FM252300 23007KT P6SM OVC020=



000
FTUS41 KBTV 250531
TAFMSS
TAF
KMSS 250531Z 2506/2606 24007KT P6SM FEW250
     FM251400 22007KT P6SM BKN025
     FM251900 22010KT 6SM -SHRA BR OVC030
     FM252200 23009KT P6SM OVC020=



000
FTUS41 KBTV 250253 AAA
TAFSLK
TAF AMD
KSLK 250253Z 2503/2524 00000KT 1/4SM FG VV002
     FM251300 23007KT P6SM BKN150
     FM251900 22009KT P6SM VCSH SCT025 OVC035=



000
FTUS41 KBTV 250032 AAA
TAFMPV
TAF AMD
KMPV 250032Z 2501/2524 32005KT P6SM SCT020 BKN035 OVC060
     FM250300 VRB03KT P6SM SCT050 BKN100
     FM250700 00000KT 1/4SM FG VV001
     FM251400 28004KT P6SM BKN200
     FM252200 19005KT P6SM SCT050 BKN150=



000
FTUS41 KBTV 242323
TAFBTV
TAF
KBTV 242323Z 2500/2524 VRB03KT P6SM SCT035 BKN150
     FM251400 21008KT P6SM BKN200
     FM252000 18006KT P6SM VCSH SCT050 BKN150=



000
FTUS41 KBTV 242323
TAFMPV
TAF
KMPV 242323Z 2500/2524 32005KT P6SM OVC015
     FM250300 VRB03KT P6SM BKN050 BKN100
     FM250700 00000KT 1/4SM FG VV001
     FM251400 28004KT P6SM BKN200
     FM252200 19005KT P6SM SCT050 BKN150=



000
FTUS41 KBTV 242323
TAFMSS
TAF
KMSS 242323Z 2500/2524 16004KT P6SM SKC
     FM251200 23005KT P6SM SCT100 BKN150
     FM251400 22009KT P6SM BKN050
     FM251900 22009KT P6SM VCSH SCT025 OVC035=



000
FTUS41 KBTV 242323
TAFSLK
TAF
KSLK 242323Z 2500/2524 00000KT P6SM SCT035 BKN100
     FM250400 00000KT P6SM SCT120
     FM251400 23007KT P6SM BKN150
     FM251900 22009KT P6SM VCSH SCT025 OVC035=



000
FTUS41 KBTV 242238 AAA
TAFSLK
TAF AMD
KSLK 242238Z 2423/2518 VRB03KT P6SM SCT035 BKN100
      TEMPO 2423/2501 BKN025
     FM250300 00000KT P6SM SCT035 BKN100
     FM251400 23007KT P6SM BKN150=



000
FTUS41 KBTV 242237 AAB
TAFBTV
TAF AMD
KBTV 242237Z 2423/2518 35005KT P6SM OVC035
     FM250300 VRB03KT P6SM SCT035 BKN150
     FM251400 21008KT P6SM SCT200=



000
FTUS41 KBTV 242059 AAA
TAFMSS
TAF AMD
KMSS 242059Z 2421/2518 VRB03KT P6SM FEW090
     FM250000 VRB03KT P6SM SKC
     FM251200 23005KT P6SM SCT100 BKN150=



000
FTUS41 KBTV 241738
TAFSLK
TAF
KSLK 241738Z 2418/2518 33005KT P6SM OVC016
      TEMPO 2418/2422 OVC025
     FM242200 33004KT P6SM OVC025
     FM250000 VRB03KT P6SM BKN035 BKN100
     FM250300 00000KT P6SM SCT035 BKN100
     FM251400 23007KT P6SM BKN150=



000
FTUS41 KBTV 241738
TAFMSS
TAF
KMSS 241738Z 2418/2518 29004KT P6SM OVC040
     FM242200 29004KT P6SM SCT040
     FM250200 VRB03KT P6SM SKC
     FM251200 23005KT P6SM SCT100 BKN150=



000
FTUS41 KBTV 241738
TAFBTV
TAF
KBTV 241738Z 2418/2518 36007KT P6SM OVC019
      TEMPO 2418/2422 OVC025
     FM242200 36004KT P6SM OVC025
     FM250000 VRB03KT P6SM OVC035
     FM250300 VRB03KT P6SM SCT035 BKN150
     FM251400 21008KT P6SM SCT200=



000
FTUS41 KBTV 241738
TAFMPV
TAF
KMPV 241738Z 2418/2518 33008KT P6SM OVC010
      TEMPO 2418/2422 OVC008
     FM242200 33005KT P6SM OVC015
     FM250000 VRB03KT P6SM OVC025
     FM250300 VRB03KT P6SM BKN050 BKN100
     FM250700 00000KT 1/4SM FG VV001
     FM251400 30004KT P6SM SCT200=



000
FTUS41 KBTV 241619 AAB
TAFBTV
TAF AMD
KBTV 241619Z 2416/2512 36007KT 6SM BR SCT007 OVC015
      TEMPO 2416/2418 5SM BR BKN007 OVC015
     FM241800 34008KT P6SM SCT007 OVC019
     FM242100 33008KT P6SM OVC035
     FM250000 VRB03KT P6SM BKN060
     FM250500 00000KT P6SM SCT200=



000
FTUS41 KBTV 241507 AAA
TAFSLK
TAF AMD
KSLK 241507Z 2415/2512 35005KT P6SM BKN006 OVC010
      TEMPO 2415/2419 SCT006 OVC011
     FM241900 33005KT P6SM BKN025 OVC035
     FM242200 VRB03KT P6SM OVC035
     FM250300 00000KT P6SM SCT200=



000
FTUS41 KBTV 241503 AAA
TAFMSS
TAF AMD
KMSS 241503Z 2415/2512 33004KT P6SM OVC035
     FM242000 00000KT P6SM SCT200=



000
FTUS41 KBTV 241457 AAB
TAFMPV
TAF AMD
KMPV 241457Z 2415/2512 31008KT 3SM BR OVC005
      TEMPO 2415/2419 2SM -DZ BR OVC008
     FM242100 32006KT P6SM OVC015
     FM242300 33004KT P6SM OVC050
     FM250900 00000KT P6SM SCT200=



000
FTUS41 KBTV 241403 AAA
TAFMPV
TAF AMD
KMPV 241403Z 2414/2512 32006KT P6SM OVC005
      TEMPO 2414/2418 6SM -DZ BR OVC008
     FM242100 32006KT P6SM OVC015
     FM242300 33004KT P6SM OVC050
     FM250900 00000KT P6SM SCT200=



000
FTUS41 KBTV 241403 AAA
TAFMPV
TAF AMD
KMPV 241403Z 2414/2512 32006KT P6SM OVC005
      TEMPO 2414/2418 6SM -DZ BR OVC008
     FM242100 32006KT P6SM OVC015
     FM242300 33004KT P6SM OVC050
     FM250900 00000KT P6SM SCT200=



000
FTUS41 KBTV 241351 AAA
TAFBTV
TAF AMD
KBTV 241351Z 2414/2512 36008KT 3SM -DZ BR OVC005
      TEMPO 2414/2418 2SM BR OVC008
     FM241800 34008KT P6SM OVC011
     FM242100 33008KT P6SM OVC035
     FM250000 VRB03KT P6SM BKN060
     FM250500 00000KT P6SM SCT200=



000
FTUS41 KBTV 241133
TAFSLK
TAF
KSLK 241133Z 2412/2512 35004KT 6SM -DZ BR OVC015
      TEMPO 2412/2415 BKN009 OVC015
     FM241900 33005KT P6SM OVC035
     FM250300 00000KT P6SM SCT200=



000
FTUS41 KBTV 241133
TAFMPV
TAF
KMPV 241133Z 2412/2512 32005KT P6SM OVC005
     FM241400 33006KT P6SM OVC008
     FM242100 32006KT P6SM OVC015
     FM242300 33004KT P6SM OVC050
     FM250900 00000KT P6SM SCT200=



000
FTUS41 KBTV 241133
TAFBTV
TAF
KBTV 241133Z 2412/2512 36008KT 4SM -DZ BR BKN007 OVC015
      TEMPO 2413/2417 SCT007 OVC015
     FM241700 34008KT P6SM OVC015
     FM242100 33008KT P6SM OVC035
     FM250000 VRB03KT P6SM BKN060
     FM250500 00000KT P6SM SCT200=



000
FTUS41 KBTV 241133
TAFMSS
TAF
KMSS 241133Z 2412/2512 33004KT P6SM OVC045
     FM242000 00000KT P6SM SCT200=



000
FTUS41 KBTV 240523
TAFMSS
TAF
KMSS 240523Z 2406/2506 02006KT P6SM OVC040
     FM250000 VRB03KT P6SM SCT120=



000
FTUS41 KBTV 240523
TAFMPV
TAF
KMPV 240523Z 2406/2506 34006KT 5SM -DZ BR OVC006
     FM241700 33007KT P6SM OVC008
     FM242100 32005KT P6SM BKN010
     FM250000 VRB03KT P6SM BKN025
     FM250100 VRB03KT P6SM BKN040=



000
FTUS41 KBTV 240523
TAFBTV
TAF
KBTV 240523Z 2406/2506 35008KT 3SM -DZ BR OVC004
     FM241400 34007KT P6SM OVC008
     FM241900 01006KT P6SM BKN015
     FM242200 VRB03KT P6SM BKN035=



000
FTUS41 KBTV 240523
TAFSLK
TAF
KSLK 240523Z 2406/2506 02005KT P6SM -DZ OVC007
     FM241600 33005KT P6SM BKN010
     FM241900 32005KT P6SM BKN035
     FM250200 00000KT P6SM SCT100=



000
FTUS41 KBTV 240323 AAA
TAFSLK
TAF AMD
KSLK 240323Z 2403/2424 01006KT P6SM VCSH OVC006
     FM240600 35006KT 6SM -RA OVC004
     FM241000 34008KT P6SM VCSH OVC007
     FM241400 35005KT 5SM -DZ BR OVC008
     FM241800 33007KT P6SM OVC050=



000
FTUS41 KBTV 240323 AAA
TAFSLK
TAF AMD
KSLK 240323Z 2403/2424 01006KT P6SM VCSH OVC006
     FM240600 35006KT 6SM -RA OVC004
     FM241000 34008KT P6SM VCSH OVC007
     FM241400 35005KT 5SM -DZ BR OVC008
     FM241800 33007KT P6SM OVC050=



000
FTUS41 KBTV 240322 AAB
TAFMSS
TAF AMD
KMSS 240322Z 2403/2424 06009KT P6SM SCT015 OVC035
      TEMPO 2404/2407 BKN015
     FM240700 05009KT P6SM VCSH OVC012
     FM241100 35007KT P6SM OVC035
     FM241400 32005KT P6SM BKN100=



000
FTUS41 KBTV 240322 AAB
TAFMSS
TAF AMD
KMSS 240322Z 2403/2424 06009KT P6SM SCT015 OVC035
      TEMPO 2404/2407 BKN015
     FM240700 05009KT P6SM VCSH OVC012
     FM241100 35007KT P6SM OVC035
     FM241400 32005KT P6SM BKN100=



000
FTUS41 KBTV 240319 AAA
TAFMPV
TAF AMD
KMPV 240319Z 2403/2424 35007KT P6SM VCSH OVC009
     FM240400 35005KT 6SM -RA OVC005
     FM241000 35005KT P6SM VCSH OVC009
     FM241600 33009KT P6SM OVC009
      TEMPO 2416/2420 5SM -RA
     FM242100 33005KT P6SM OVC060=



000
FTUS41 KBTV 240319 AAA
TAFMPV
TAF AMD
KMPV 240319Z 2403/2424 35007KT P6SM VCSH OVC009
     FM240400 35005KT 6SM -RA OVC005
     FM241000 35005KT P6SM VCSH OVC009
     FM241600 33009KT P6SM OVC009
      TEMPO 2416/2420 5SM -RA
     FM242100 33005KT P6SM OVC060=



000
FTUS41 KBTV 240317 AAB
TAFBTV
TAF AMD
KBTV 240317Z 2403/2424 35010KT P6SM VCSH OVC004
     FM240500 34008KT 5SM -RA OVC005
     FM240900 34005KT P6SM VCSH OVC007
     FM241600 34010KT P6SM OVC020
     FM242200 34008KT P6SM BKN080=



000
FTUS41 KBTV 240317 AAB
TAFBTV
TAF AMD
KBTV 240317Z 2403/2424 35010KT P6SM VCSH OVC004
     FM240500 34008KT 5SM -RA OVC005
     FM240900 34005KT P6SM VCSH OVC007
     FM241600 34010KT P6SM OVC020
     FM242200 34008KT P6SM BKN080=



000
FTUS41 KBTV 240137 AAA
TAFMSS
TAF AMD
KMSS 240137Z 2402/2424 06009KT P6SM BKN015 OVC020
      TEMPO 2402/2405 BKN008
     FM240500 05009KT 5SM -RA BR OVC008
     FM241100 35007KT P6SM OVC035
     FM241400 32005KT P6SM BKN100=



000
FTUS41 KBTV 240137 AAA
TAFMSS
TAF AMD
KMSS 240137Z 2402/2424 06009KT P6SM BKN015 OVC020
      TEMPO 2402/2405 BKN008
     FM240500 05009KT 5SM -RA BR OVC008
     FM241100 35007KT P6SM OVC035
     FM241400 32005KT P6SM BKN100=



000
FTUS41 KBTV 232330
TAFMPV
TAF
KMPV 232330Z 2400/2424 34009KT P6SM VCSH OVC009
     FM240100 35005KT 5SM -RA OVC004
     FM241000 35005KT P6SM VCSH OVC009
     FM241600 33009KT P6SM OVC009
      TEMPO 2416/2420 5SM -RA
     FM242100 33005KT P6SM OVC060=



000
FTUS41 KBTV 232330
TAFSLK
TAF
KSLK 232330Z 2400/2424 03008KT 6SM -RA BR OVC006
     FM240200 02008KT 4SM -RA OVC004
     FM241000 34010KT P6SM VCSH OVC007
     FM241400 35005KT 5SM -DZ BR OVC008
     FM241800 33007KT P6SM OVC050=



000
FTUS41 KBTV 232330
TAFBTV
TAF
KBTV 232330Z 2400/2424 35014G20KT P6SM VCSH OVC007
     FM240100 34014G20KT 5SM -RA OVC005
     FM240900 34012G18KT P6SM VCSH OVC007
     FM241600 34010KT P6SM OVC020
     FM242200 34008KT P6SM BKN080=



000
FTUS41 KBTV 232330
TAFMSS
TAF
KMSS 232330Z 2400/2424 04014KT P6SM -RA BKN015 OVC020
     FM240300 02009KT 5SM -RA BR OVC011
     FM241100 33007KT P6SM OVC035
     FM241400 32005KT P6SM BKN100=



000
FTUS41 KBTV 231949 AAA
TAFSLK
TAF AMD
KSLK 231949Z 2320/2418 02009KT 6SM -RA BR SCT007 OVC014
      TEMPO 2320/2324 4SM -RA BR OVC007
     FM240000 03008KT 4SM -RA BR OVC006
     FM241400 35005KT 5SM -DZ BR OVC008=



000
FTUS41 KBTV 231949 AAA
TAFSLK
TAF AMD
KSLK 231949Z 2320/2418 02009KT 6SM -RA BR SCT007 OVC014
      TEMPO 2320/2324 4SM -RA BR OVC007
     FM240000 03008KT 4SM -RA BR OVC006
     FM241400 35005KT 5SM -DZ BR OVC008=



000
FTUS41 KBTV 231947 AAB
TAFBTV
TAF AMD
KBTV 231947Z 2320/2418 35014G20KT 6SM -RA BR OVC006
      TEMPO 2320/2324 5SM -RA BR OVC008
     FM240000 35014G20KT 6SM -RA BR OVC007
     FM241600 34010KT P6SM OVC020=



000
FTUS41 KBTV 231947 AAB
TAFBTV
TAF AMD
KBTV 231947Z 2320/2418 35014G20KT 6SM -RA BR OVC006
      TEMPO 2320/2324 5SM -RA BR OVC008
     FM240000 35014G20KT 6SM -RA BR OVC007
     FM241600 34010KT P6SM OVC020=



000
FTUS41 KBTV 231944 AAA
TAFMPV
TAF AMD
KMPV 231944Z 2320/2418 36009KT 6SM -RA SCT006 OVC012
      TEMPO 2320/2324 5SM -RA BR BKN006 OVC012
     FM240000 34009KT 3SM -RA BR OVC006
     FM241600 33009KT 5SM -RA BR OVC009=



000
FTUS41 KBTV 231944 AAA
TAFMPV
TAF AMD
KMPV 231944Z 2320/2418 36009KT 6SM -RA SCT006 OVC012
      TEMPO 2320/2324 5SM -RA BR BKN006 OVC012
     FM240000 34009KT 3SM -RA BR OVC006
     FM241600 33009KT 5SM -RA BR OVC009=



000
FTUS41 KBTV 231941 AAA
TAFMSS
TAF AMD
KMSS 231941Z 2320/2418 04014KT 6SM -RA BKN015 OVC020
      TEMPO 2320/2324 5SM -RA BR OVC013
     FM240000 02009KT 5SM -RA BR OVC011
     FM241100 33007KT P6SM OVC035=



000
FTUS41 KBTV 231941 AAA
TAFMSS
TAF AMD
KMSS 231941Z 2320/2418 04014KT 6SM -RA BKN015 OVC020
      TEMPO 2320/2324 5SM -RA BR OVC013
     FM240000 02009KT 5SM -RA BR OVC011
     FM241100 33007KT P6SM OVC035=



000
FTUS41 KBTV 231736
TAFMSS
TAF
KMSS 231736Z 2318/2418 04014G20KT P6SM BKN025 OVC035
      TEMPO 2318/2322 SCT025 OVC035
     FM240000 02009KT P6SM -SHRA OVC025
     FM241100 33007KT P6SM OVC035=



000
FTUS41 KBTV 231736
TAFSLK
TAF
KSLK 231736Z 2318/2418 02009KT 5SM -RA BR OVC009
      TEMPO 2318/2322 2SM -RA BR OVC006
     FM240000 03008KT 3SM -RA BR OVC005
     FM241400 35005KT 5SM -DZ BR OVC008=



000
FTUS41 KBTV 231736
TAFMPV
TAF
KMPV 231736Z 2318/2418 34009KT 3SM -RA BR OVC008
      TEMPO 2318/2322 2SM -RA BR OVC005
     FM240000 34009KT 3SM -RA BR OVC006
     FM241600 33009KT 5SM -RA BR OVC009=



000
FTUS41 KBTV 231736
TAFBTV
TAF
KBTV 231736Z 2318/2418 35014G20KT 3SM -RA BR OVC009
      TEMPO 2318/2322 2SM -RA BR OVC011
     FM240000 35014G20KT 5SM -RA BR OVC010
     FM241600 34010KT P6SM OVC020=



000
FTUS41 KBTV 231450 AAB
TAFBTV
TAF AMD
KBTV 231450Z 2315/2412 35014G20KT 4SM -RA BR OVC010
      TEMPO 2315/2318 6SM -RA BR OVC008
     FM231800 34012G20KT 5SM -RA BR OVC009
     FM240800 34009KT P6SM OVC025=



000
FTUS41 KBTV 231450 AAB
TAFBTV
TAF AMD
KBTV 231450Z 2315/2412 35014G20KT 4SM -RA BR OVC010
      TEMPO 2315/2318 6SM -RA BR OVC008
     FM231800 34012G20KT 5SM -RA BR OVC009
     FM240800 34009KT P6SM OVC025=



000
FTUS41 KBTV 231420 AAA
TAFMSS
TAF AMD
KMSS 231420Z 2314/2412 03014G22KT P6SM OVC040
     FM232100 04008KT P6SM OVC035
     FM240400 02007KT P6SM OVC040=



000
FTUS41 KBTV 231414 AAB
TAFBTV
TAF AMD
KBTV 231414Z 2314/2412 35014G20KT 6SM -RA BR BKN035 OVC060
      TEMPO 2314/2317 4SM -RA BR
     FM231700 34012G20KT 6SM -RA BR OVC015
     FM240800 34009KT P6SM OVC025=



000
FTUS41 KBTV 231414 AAB
TAFBTV
TAF AMD
KBTV 231414Z 2314/2412 35014G20KT 6SM -RA BR BKN035 OVC060
      TEMPO 2314/2317 4SM -RA BR
     FM231700 34012G20KT 6SM -RA BR OVC015
     FM240800 34009KT P6SM OVC025=



000
FTUS41 KBTV 231322 AAA
TAFSLK
TAF AMD
KSLK 231322Z 2313/2412 03009KT P6SM OVC009
      TEMPO 2313/2317 OVC011
     FM231700 03009KT P6SM OVC011
     FM232000 03008KT 6SM -RA BR OVC015
     FM240200 05004KT 6SM -RA BR OVC008
     FM240700 05005KT P6SM OVC008=



000
FTUS41 KBTV 231135
TAFMPV
TAF
KMPV 231135Z 2312/2412 33008KT P6SM -SHRA OVC015
     FM231600 33010G16KT 6SM -RA BR OVC015
     FM240200 33008KT 6SM -RA BR OVC008
     FM241000 33005KT P6SM OVC008=



000
FTUS41 KBTV 231135
TAFMSS
TAF
KMSS 231135Z 2312/2412 03013G21KT P6SM OVC040
     FM231400 03014G22KT P6SM OVC020
     FM232100 04008KT P6SM OVC015
     FM240400 02007KT P6SM OVC040=



000
FTUS41 KBTV 231135
TAFSLK
TAF
KSLK 231135Z 2312/2412 03008KT P6SM OVC015
     FM232000 03008KT 6SM -RA BR OVC015
     FM240200 05004KT 6SM -RA BR OVC008
     FM240700 05005KT P6SM OVC008=



000
FTUS41 KBTV 231135
TAFBTV
TAF
KBTV 231135Z 2312/2412 35012G20KT P6SM OVC035
      TEMPO 2312/2314 OVC030
     FM231400 35012G20KT P6SM -SHRA OVC030
     FM231700 34012G20KT 6SM -RA BR OVC015
     FM240800 34009KT P6SM OVC025=



000
FTUS41 KBTV 231002 AAA
TAFSLK
TAF AMD
KSLK 231002Z 2310/2406 02008KT P6SM OVC015
     FM231800 02009KT 3SM -RA BR OVC015
     FM240100 03004KT 3SM BR OVC010=



000
FTUS41 KBTV 231002 AAA
TAFSLK
TAF AMD
KSLK 231002Z 2310/2406 02008KT P6SM OVC015
     FM231800 02009KT 3SM -RA BR OVC015
     FM240100 03004KT 3SM BR OVC010=



000
FTUS41 KBTV 231000 AAA
TAFBTV
TAF AMD
KBTV 231000Z 2310/2406 36014G20KT P6SM OVC035
      TEMPO 2310/2312 OVC028
     FM231200 36014G20KT P6SM OVC028
     FM231500 35010KT 3SM -RA BR OVC015
     FM240200 36006KT 3SM BR OVC015=



000
FTUS41 KBTV 231000 AAA
TAFBTV
TAF AMD
KBTV 231000Z 2310/2406 36014G20KT P6SM OVC035
      TEMPO 2310/2312 OVC028
     FM231200 36014G20KT P6SM OVC028
     FM231500 35010KT 3SM -RA BR OVC015
     FM240200 36006KT 3SM BR OVC015=



    US Dept of Commerce
    National Oceanic and Atmospheric Administration
    National Weather Service
    1325 East West Highway
    Silver Spring, MD 20910
    Page Author: NWS Internet Services Team
Disclaimer
Information Quality
Credits
Glossary
Privacy Policy
Freedom of Information Act (FOIA)
About Us
Career Opportunities